Meteo Giornale » Osservazioni meteo Stati Uniti (USA) » Fullerton-Polk
ore: 15:49 - Osservazioni Meteo Fullerton-Polk
Lat. 31° 0' N Lon. 92° 58' W Alt. 94 metri s.l.m.
34 °C
Sereno
Temp. 24 Ore
22 °C
34 °C
Nord
0 Km/h
Dew point 21 °C
Umidità 46 %
Visibilità 10 Km
Il sole sorge alle ore 06:47
Il sole tramonta alle ore 19:36
| Data e Ora | Cielo e Fenomeni | T °C | DP °C | Um. % | Pres. hPa | Vis. km | Vento km/h | |
|---|---|---|---|---|---|---|---|---|
| Oggi h: 15:49 | Sereno | 34 | 21 | 46 | 1014 | 10 | N 0 | |
| Oggi h: 14:49 | Poco Nuvoloso | 33 | 22 | 52 | 1015 | 10 | N 7.4 | |
| Oggi h: 13:49 | Sereno | 33 | 22 | 52 | 1016 | 10 | N 5.5 | |
| Oggi h: 12:49 | Poco Nuvoloso | 32 | 22 | 55 | 1016 | 10 | N 5.5 | |
| Oggi h: 11:49 | Poco Nuvoloso | 32 | 22 | 55 | 1017 | 10 | N 7.4 | |
| Oggi h: 10:49 | Poco Nuvoloso | 31 | 23 | 62 | 1017 | 10 | N 0 | |
| Oggi h: 09:49 | Sereno | 29 | 23 | 70 | 1017 | 10 | N 0 | |
| Oggi h: 08:49 | Sereno | 27 | 24 | 83 | 1017 | 10 | N 0 | |
| Oggi h: 07:49 | Foschia | 23 | 23 | 100 | 1016 | 8 | N 0 | |
| Oggi h: 06:49 | Foschia | 22 | 22 | 100 | 1015 | 8 | N 0 | |
| Oggi h: 05:49 | Foschia | 23 | 22 | 94 | 1015 | 10 | N 0 | |
| Oggi h: 04:49 | Sereno | 23 | 23 | 100 | 1015 | 10 | N 0 | |
| Oggi h: 03:49 | Sereno | 23 | 23 | 100 | 1015 | 10 | N 0 | |
| Oggi h: 02:49 | Sereno | 24 | 23 | 94 | 1015 | 10 | N 0 | |
| Oggi h: 01:49 | Sereno | 25 | 23 | 88 | 1015 | 10 | N 0 | |
| Oggi h: 00:49 | Sereno | 26 | 23 | 83 | 1015 | 10 | N 0 | |
| Ieri h: 23:49 | Sereno | 26 | 23 | 83 | 1015 | 10 | N 0 | |
| Ieri h: 22:49 | Sereno | 27 | 22 | 74 | 1015 | 10 | N 5.5 | |
| Ieri h: 21:49 | Sereno | 26 | 21 | 73 | 1015 | 10 | N 0 | |
| Ieri h: 20:49 | Sereno | 26 | 22 | 78 | 1014 | 10 | N 0 | |
| Ieri h: 19:49 | Sereno | 27 | 22 | 74 | 1013 | 10 | N 0 | |
| Ieri h: 18:49 | Sereno | 31 | 21 | 55 | 1013 | 10 | N 0 | |
| Ieri h: 17:49 | Sereno | 34 | 19 | 41 | 1013 | 10 | N 9.3 | |
| Ieri h: 16:49 | Sereno | 34 | 19 | 41 | 1013 | 14 | N 7.4 | |



